sensor_id;sensor_type;location;lat;lon;timestamp;P1;durP1;ratioP1;P2;durP2;ratioP2
48925;SDS011;39838;59.938;30.642;2024-03-23T00:52:59;7.35;;;3.22;;
48925;SDS011;39838;59.938;30.642;2024-03-23T00:55:26;7.00;;;3.10;;
48925;SDS011;39838;59.938;30.642;2024-03-23T00:57:53;6.45;;;3.10;;
48925;SDS011;39838;59.938;30.642;2024-03-23T01:00:19;6.18;;;2.78;;
48925;SDS011;39838;59.938;30.642;2024-03-23T01:02:46;4.18;;;2.50;;
48925;SDS011;39838;59.938;30.642;2024-03-23T01:05:12;5.43;;;3.00;;
48925;SDS011;39838;59.938;30.642;2024-03-23T01:07:39;5.55;;;2.45;;
48925;SDS011;39838;59.938;30.642;2024-03-23T01:10:07;6.43;;;2.58;;
48925;SDS011;39838;59.938;30.642;2024-03-23T01:12:35;4.55;;;2.72;;
48925;SDS011;39838;59.938;30.642;2024-03-23T01:15:01;4.78;;;2.63;;
48925;SDS011;39838;59.938;30.642;2024-03-23T01:17:29;4.18;;;2.80;;
48925;SDS011;39838;59.938;30.642;2024-03-23T01:19:55;4.93;;;3.00;;
48925;SDS011;39838;59.938;30.642;2024-03-23T01:22:22;6.22;;;2.80;;
48925;SDS011;39838;59.938;30.642;2024-03-23T01:24:48;4.47;;;2.60;;
48925;SDS011;39838;59.938;30.642;2024-03-23T01:27:17;3.60;;;2.65;;
48925;SDS011;39838;59.938;30.642;2024-03-23T01:29:43;4.72;;;2.88;;
48925;SDS011;39838;59.938;30.642;2024-03-23T01:32:10;4.18;;;2.88;;
48925;SDS011;39838;59.938;30.642;2024-03-23T01:34:36;4.97;;;2.78;;
48925;SDS011;39838;59.938;30.642;2024-03-23T01:37:03;4.75;;;2.72;;
48925;SDS011;39838;59.938;30.642;2024-03-23T01:39:30;4.00;;;2.50;;
48925;SDS011;39838;59.938;30.642;2024-03-23T01:41:57;3.63;;;2.50;;
48925;SDS011;39838;59.938;30.642;2024-03-23T01:44:26;4.53;;;2.80;;
48925;SDS011;39838;59.938;30.642;2024-03-23T01:46:52;4.00;;;2.38;;
48925;SDS011;39838;59.938;30.642;2024-03-23T01:49:19;3.25;;;2.42;;
48925;SDS011;39838;59.938;30.642;2024-03-23T01:51:46;5.47;;;2.42;;
48925;SDS011;39838;59.938;30.642;2024-03-23T01:54:13;4.05;;;2.55;;
48925;SDS011;39838;59.938;30.642;2024-03-23T01:56:40;3.58;;;2.40;;
48925;SDS011;39838;59.938;30.642;2024-03-23T01:59:07;8.80;;;3.00;;
48925;SDS011;39838;59.938;30.642;2024-03-23T02:01:35;5.65;;;2.40;;
48925;SDS011;39838;59.938;30.642;2024-03-23T02:04:03;5.20;;;2.72;;
48925;SDS011;39838;59.938;30.642;2024-03-23T02:06:29;3.83;;;2.67;;
48925;SDS011;39838;59.938;30.642;2024-03-23T02:08:56;4.47;;;2.53;;
48925;SDS011;39838;59.938;30.642;2024-03-23T02:11:23;3.33;;;2.42;;
48925;SDS011;39838;59.938;30.642;2024-03-23T02:13:50;3.92;;;2.92;;
48925;SDS011;39838;59.938;30.642;2024-03-23T02:16:17;4.28;;;2.47;;
48925;SDS011;39838;59.938;30.642;2024-03-23T02:18:46;3.80;;;2.45;;
48925;SDS011;39838;59.938;30.642;2024-03-23T02:21:12;2.97;;;2.20;;
48925;SDS011;39838;59.938;30.642;2024-03-23T02:23:40;3.20;;;2.33;;
48925;SDS011;39838;59.938;30.642;2024-03-23T02:26:06;3.65;;;2.40;;
48925;SDS011;39838;59.938;30.642;2024-03-23T02:28:34;3.83;;;2.45;;
48925;SDS011;39838;59.938;30.642;2024-03-23T02:31:00;3.30;;;2.50;;
48925;SDS011;39838;59.938;30.642;2024-03-23T02:33:27;3.63;;;2.45;;
48925;SDS011;39838;59.938;30.642;2024-03-23T02:35:55;2.42;;;2.22;;
48925;SDS011;39838;59.938;30.642;2024-03-23T02:38:23;3.58;;;2.45;;
48925;SDS011;39838;59.938;30.642;2024-03-23T02:40:51;3.20;;;2.50;;
48925;SDS011;39838;59.938;30.642;2024-03-23T02:43:18;3.65;;;2.90;;
48925;SDS011;39838;59.938;30.642;2024-03-23T02:45:44;4.20;;;2.95;;
48925;SDS011;39838;59.938;30.642;2024-03-23T02:48:11;3.72;;;2.95;;
48925;SDS011;39838;59.938;30.642;2024-03-23T02:50:37;5.25;;;3.38;;
48925;SDS011;39838;59.938;30.642;2024-03-23T02:53:04;4.22;;;3.15;;
48925;SDS011;39838;59.938;30.642;2024-03-23T02:55:30;4.93;;;3.22;;
48925;SDS011;39838;59.938;30.642;2024-03-23T02:57:59;4.88;;;3.45;;
48925;SDS011;39838;59.938;30.642;2024-03-23T03:00:27;5.50;;;3.60;;
48925;SDS011;39838;59.938;30.642;2024-03-23T03:02:54;4.80;;;3.38;;
48925;SDS011;39838;59.938;30.642;2024-03-23T03:05:21;4.15;;;3.25;;
48925;SDS011;39838;59.938;30.642;2024-03-23T03:07:48;5.15;;;3.55;;
48925;SDS011;39838;59.938;30.642;2024-03-23T03:10:14;5.00;;;3.53;;
48925;SDS011;39838;59.938;30.642;2024-03-23T03:12:43;5.63;;;3.67;;
48925;SDS011;39838;59.938;30.642;2024-03-23T03:15:10;7.18;;;3.55;;
48925;SDS011;39838;59.938;30.642;2024-03-23T03:17:38;4.57;;;3.40;;
48925;SDS011;39838;59.938;30.642;2024-03-23T03:20:04;5.55;;;3.55;;
48925;SDS011;39838;59.938;30.642;2024-03-23T03:22:33;5.75;;;3.95;;
48925;SDS011;39838;59.938;30.642;2024-03-23T03:25:00;7.22;;;4.38;;
48925;SDS011;39838;59.938;30.642;2024-03-23T03:27:30;6.13;;;3.90;;
48925;SDS011;39838;59.938;30.642;2024-03-23T03:29:58;7.05;;;4.25;;
48925;SDS011;39838;59.938;30.642;2024-03-23T03:32:28;6.15;;;4.10;;
48925;SDS011;39838;59.938;30.642;2024-03-23T03:34:55;7.32;;;4.30;;
48925;SDS011;39838;59.938;30.642;2024-03-23T03:37:21;6.38;;;4.18;;
48925;SDS011;39838;59.938;30.642;2024-03-23T03:39:49;7.68;;;4.38;;
48925;SDS011;39838;59.938;30.642;2024-03-23T03:42:15;9.60;;;4.43;;
48925;SDS011;39838;59.938;30.642;2024-03-23T03:44:42;7.28;;;4.60;;
48925;SDS011;39838;59.938;30.642;2024-03-23T03:47:08;6.57;;;4.13;;
48925;SDS011;39838;59.938;30.642;2024-03-23T03:49:37;5.97;;;4.07;;
48925;SDS011;39838;59.938;30.642;2024-03-23T03:52:03;6.15;;;4.07;;
48925;SDS011;39838;59.938;30.642;2024-03-23T03:54:31;7.15;;;3.78;;
48925;SDS011;39838;59.938;30.642;2024-03-23T03:56:58;6.03;;;4.00;;
48925;SDS011;39838;59.938;30.642;2024-03-23T03:59:26;6.72;;;3.72;;
48925;SDS011;39838;59.938;30.642;2024-03-23T04:01:52;6.78;;;4.22;;
48925;SDS011;39838;59.938;30.642;2024-03-23T04:04:19;6.38;;;4.20;;
48925;SDS011;39838;59.938;30.642;2024-03-23T04:06:47;6.05;;;4.13;;
48925;SDS011;39838;59.938;30.642;2024-03-23T04:09:14;7.40;;;4.38;;
48925;SDS011;39838;59.938;30.642;2024-03-23T04:11:40;6.45;;;4.40;;
48925;SDS011;39838;59.938;30.642;2024-03-23T04:14:08;5.72;;;4.28;;
48925;SDS011;39838;59.938;30.642;2024-03-23T04:16:34;7.03;;;4.63;;
48925;SDS011;39838;59.938;30.642;2024-03-23T04:19:02;6.28;;;4.20;;
48925;SDS011;39838;59.938;30.642;2024-03-23T04:21:29;6.82;;;4.50;;
48925;SDS011;39838;59.938;30.642;2024-03-23T04:23:58;6.97;;;4.25;;
48925;SDS011;39838;59.938;30.642;2024-03-23T04:26:24;8.40;;;4.47;;
48925;SDS011;39838;59.938;30.642;2024-03-23T04:28:51;6.97;;;4.50;;
48925;SDS011;39838;59.938;30.642;2024-03-23T04:31:17;7.43;;;5.10;;
48925;SDS011;39838;59.938;30.642;2024-03-23T04:33:44;8.32;;;4.65;;
48925;SDS011;39838;59.938;30.642;2024-03-23T04:36:10;6.13;;;4.25;;
48925;SDS011;39838;59.938;30.642;2024-03-23T04:38:38;7.85;;;4.75;;
48925;SDS011;39838;59.938;30.642;2024-03-23T04:41:08;7.55;;;4.78;;
48925;SDS011;39838;59.938;30.642;2024-03-23T04:43:35;8.48;;;4.85;;
48925;SDS011;39838;59.938;30.642;2024-03-23T04:46:03;7.82;;;5.30;;
48925;SDS011;39838;59.938;30.642;2024-03-23T04:48:30;7.47;;;4.70;;
48925;SDS011;39838;59.938;30.642;2024-03-23T04:50:57;8.40;;;4.55;;
48925;SDS011;39838;59.938;30.642;2024-03-23T04:53:24;6.78;;;4.30;;
48925;SDS011;39838;59.938;30.642;2024-03-23T04:55:53;6.00;;;4.20;;
48925;SDS011;39838;59.938;30.642;2024-03-23T04:58:22;8.23;;;4.72;;
48925;SDS011;39838;59.938;30.642;2024-03-23T05:00:52;7.78;;;3.80;;
48925;SDS011;39838;59.938;30.642;2024-03-23T05:03:20;5.00;;;3.10;;
48925;SDS011;39838;59.938;30.642;2024-03-23T05:05:47;4.65;;;3.30;;
48925;SDS011;39838;59.938;30.642;2024-03-23T05:08:14;5.40;;;3.47;;
48925;SDS011;39838;59.938;30.642;2024-03-23T05:10:41;4.00;;;3.00;;
48925;SDS011;39838;59.938;30.642;2024-03-23T05:13:08;4.70;;;3.13;;
48925;SDS011;39838;59.938;30.642;2024-03-23T05:15:37;4.75;;;2.97;;
48925;SDS011;39838;59.938;30.642;2024-03-23T05:18:04;4.50;;;3.33;;
48925;SDS011;39838;59.938;30.642;2024-03-23T05:20:32;4.55;;;3.17;;
48925;SDS011;39838;59.938;30.642;2024-03-23T05:22:58;5.18;;;3.30;;
48925;SDS011;39838;59.938;30.642;2024-03-23T05:25:25;7.28;;;3.50;;
48925;SDS011;39838;59.938;30.642;2024-03-23T05:27:51;5.20;;;3.45;;
48925;SDS011;39838;59.938;30.642;2024-03-23T05:30:19;5.85;;;3.80;;
48925;SDS011;39838;59.938;30.642;2024-03-23T05:32:46;5.50;;;3.67;;
48925;SDS011;39838;59.938;30.642;2024-03-23T05:35:13;5.43;;;3.40;;
48925;SDS011;39838;59.938;30.642;2024-03-23T05:37:39;8.60;;;4.00;;
48925;SDS011;39838;59.938;30.642;2024-03-23T05:40:07;5.90;;;4.20;;
48925;SDS011;39838;59.938;30.642;2024-03-23T05:42:35;7.53;;;4.40;;
48925;SDS011;39838;59.938;30.642;2024-03-23T05:45:02;8.23;;;3.88;;
48925;SDS011;39838;59.938;30.642;2024-03-23T05:47:31;7.97;;;4.32;;
48925;SDS011;39838;59.938;30.642;2024-03-23T05:50:00;8.63;;;4.93;;
48925;SDS011;39838;59.938;30.642;2024-03-23T05:52:30;9.60;;;4.25;;
48925;SDS011;39838;59.938;30.642;2024-03-23T05:54:57;8.00;;;4.20;;
48925;SDS011;39838;59.938;30.642;2024-03-23T05:57:24;8.43;;;4.28;;
48925;SDS011;39838;59.938;30.642;2024-03-23T05:59:51;9.88;;;4.80;;
48925;SDS011;39838;59.938;30.642;2024-03-23T06:02:17;11.93;;;4.95;;
48925;SDS011;39838;59.938;30.642;2024-03-23T06:04:45;7.65;;;4.50;;
48925;SDS011;39838;59.938;30.642;2024-03-23T06:07:13;9.95;;;4.45;;
48925;SDS011;39838;59.938;30.642;2024-03-23T06:09:40;10.02;;;4.80;;
48925;SDS011;39838;59.938;30.642;2024-03-23T06:12:06;9.77;;;4.72;;
48925;SDS011;39838;59.938;30.642;2024-03-23T06:14:34;12.02;;;5.38;;
48925;SDS011;39838;59.938;30.642;2024-03-23T06:17:00;10.55;;;5.05;;
48925;SDS011;39838;59.938;30.642;2024-03-23T06:19:28;9.70;;;4.70;;
48925;SDS011;39838;59.938;30.642;2024-03-23T06:21:54;10.80;;;4.60;;
48925;SDS011;39838;59.938;30.642;2024-03-23T06:24:23;7.15;;;4.70;;
48925;SDS011;39838;59.938;30.642;2024-03-23T06:26:50;7.57;;;4.13;;
48925;SDS011;39838;59.938;30.642;2024-03-23T06:29:17;10.65;;;4.85;;
48925;SDS011;39838;59.938;30.642;2024-03-23T06:31:43;9.20;;;4.20;;
48925;SDS011;39838;59.938;30.642;2024-03-23T06:34:11;8.35;;;3.88;;
48925;SDS011;39838;59.938;30.642;2024-03-23T06:36:37;10.50;;;4.38;;
48925;SDS011;39838;59.938;30.642;2024-03-23T06:39:04;7.03;;;4.25;;
48925;SDS011;39838;59.938;30.642;2024-03-23T06:41:33;8.60;;;4.20;;
48925;SDS011;39838;59.938;30.642;2024-03-23T06:44:00;7.68;;;3.80;;
48925;SDS011;39838;59.938;30.642;2024-03-23T06:46:26;7.05;;;4.22;;
48925;SDS011;39838;59.938;30.642;2024-03-23T06:48:54;7.50;;;4.00;;
48925;SDS011;39838;59.938;30.642;2024-03-23T06:51:20;6.90;;;3.58;;
48925;SDS011;39838;59.938;30.642;2024-03-23T06:53:47;8.23;;;4.13;;
48925;SDS011;39838;59.938;30.642;2024-03-23T06:56:15;9.45;;;4.07;;
48925;SDS011;39838;59.938;30.642;2024-03-23T06:58:43;6.53;;;4.05;;
48925;SDS011;39838;59.938;30.642;2024-03-23T07:01:10;8.25;;;3.97;;
48925;SDS011;39838;59.938;30.642;2024-03-23T07:03:37;9.20;;;3.90;;
48925;SDS011;39838;59.938;30.642;2024-03-23T07:06:03;8.10;;;4.00;;
48925;SDS011;39838;59.938;30.642;2024-03-23T07:08:30;9.23;;;4.55;;
48925;SDS011;39838;59.938;30.642;2024-03-23T07:10:56;8.27;;;4.45;;
48925;SDS011;39838;59.938;30.642;2024-03-23T07:13:24;8.05;;;4.30;;
48925;SDS011;39838;59.938;30.642;2024-03-23T07:15:54;7.38;;;4.18;;
48925;SDS011;39838;59.938;30.642;2024-03-23T07:18:23;8.43;;;4.30;;
48925;SDS011;39838;59.938;30.642;2024-03-23T07:20:53;9.52;;;4.68;;
48925;SDS011;39838;59.938;30.642;2024-03-23T07:23:21;6.40;;;3.47;;
48925;SDS011;39838;59.938;30.642;2024-03-23T07:25:56;8.80;;;4.72;;
48925;SDS011;39838;59.938;30.642;2024-03-23T07:28:23;7.80;;;4.20;;
48925;SDS011;39838;59.938;30.642;2024-03-23T07:31:01;9.82;;;4.45;;
48925;SDS011;39838;59.938;30.642;2024-03-23T07:33:29;10.32;;;5.05;;
48925;SDS011;39838;59.938;30.642;2024-03-23T07:35:56;9.70;;;4.63;;
48925;SDS011;39838;59.938;30.642;2024-03-23T07:38:25;9.10;;;4.30;;
48925;SDS011;39838;59.938;30.642;2024-03-23T07:40:52;7.95;;;5.40;;
48925;SDS011;39838;59.938;30.642;2024-03-23T07:43:28;7.13;;;4.25;;
48925;SDS011;39838;59.938;30.642;2024-03-23T07:45:54;8.13;;;5.15;;
48925;SDS011;39838;59.938;30.642;2024-03-23T07:48:23;9.02;;;5.60;;
48925;SDS011;39838;59.938;30.642;2024-03-23T07:50:59;11.15;;;5.97;;
48925;SDS011;39838;59.938;30.642;2024-03-23T07:53:27;11.45;;;5.70;;
48925;SDS011;39838;59.938;30.642;2024-03-23T07:55:54;7.45;;;5.32;;
48925;SDS011;39838;59.938;30.642;2024-03-23T07:58:22;10.43;;;5.45;;
48925;SDS011;39838;59.938;30.642;2024-03-23T08:00:49;9.48;;;5.22;;
48925;SDS011;39838;59.938;30.642;2024-03-23T08:03:16;9.63;;;5.88;;
48925;SDS011;39838;59.938;30.642;2024-03-23T08:05:43;11.63;;;5.88;;
48925;SDS011;39838;59.938;30.642;2024-03-23T08:08:11;11.27;;;5.55;;
48925;SDS011;39838;59.938;30.642;2024-03-23T08:10:37;13.38;;;6.72;;
48925;SDS011;39838;59.938;30.642;2024-03-23T08:13:13;11.80;;;6.20;;
48925;SDS011;39838;59.938;30.642;2024-03-23T08:15:39;11.73;;;6.75;;
48925;SDS011;39838;59.938;30.642;2024-03-23T08:18:06;13.20;;;7.32;;
48925;SDS011;39838;59.938;30.642;2024-03-23T08:20:32;16.17;;;7.45;;
48925;SDS011;39838;59.938;30.642;2024-03-23T08:23:01;14.50;;;6.95;;
48925;SDS011;39838;59.938;30.642;2024-03-23T08:25:30;12.07;;;6.72;;
48925;SDS011;39838;59.938;30.642;2024-03-23T08:27:57;11.15;;;6.53;;
48925;SDS011;39838;59.938;30.642;2024-03-23T08:30:24;12.13;;;6.55;;
48925;SDS011;39838;59.938;30.642;2024-03-23T08:32:51;11.63;;;7.30;;
48925;SDS011;39838;59.938;30.642;2024-03-23T08:35:17;14.88;;;7.93;;
48925;SDS011;39838;59.938;30.642;2024-03-23T08:37:45;10.55;;;5.75;;
48925;SDS011;39838;59.938;30.642;2024-03-23T08:40:13;10.73;;;4.50;;
48925;SDS011;39838;59.938;30.642;2024-03-23T08:42:41;8.57;;;5.25;;
48925;SDS011;39838;59.938;30.642;2024-03-23T08:45:07;8.98;;;4.15;;
48925;SDS011;39838;59.938;30.642;2024-03-23T08:47:35;7.80;;;4.40;;
48925;SDS011;39838;59.938;30.642;2024-03-23T08:50:01;7.82;;;3.85;;
48925;SDS011;39838;59.938;30.642;2024-03-23T08:52:30;8.10;;;4.18;;
48925;SDS011;39838;59.938;30.642;2024-03-23T08:54:56;7.07;;;3.90;;
48925;SDS011;39838;59.938;30.642;2024-03-23T08:57:25;7.00;;;4.53;;
48925;SDS011;39838;59.938;30.642;2024-03-23T08:59:51;8.60;;;4.75;;
48925;SDS011;39838;59.938;30.642;2024-03-23T09:02:18;6.88;;;4.30;;
48925;SDS011;39838;59.938;30.642;2024-03-23T09:04:44;7.70;;;4.47;;
48925;SDS011;39838;59.938;30.642;2024-03-23T09:07:11;7.88;;;4.78;;
48925;SDS011;39838;59.938;30.642;2024-03-23T09:09:39;6.85;;;4.60;;
48925;SDS011;39838;59.938;30.642;2024-03-23T09:12:07;12.57;;;4.72;;
48925;SDS011;39838;59.938;30.642;2024-03-23T09:14:34;7.68;;;4.45;;
48925;SDS011;39838;59.938;30.642;2024-03-23T09:17:02;8.90;;;5.22;;
48925;SDS011;39838;59.938;30.642;2024-03-23T09:19:28;10.00;;;4.85;;
48925;SDS011;39838;59.938;30.642;2024-03-23T09:21:56;8.73;;;4.53;;
48925;SDS011;39838;59.938;30.642;2024-03-23T09:24:22;12.52;;;6.25;;
48925;SDS011;39838;59.938;30.642;2024-03-23T09:26:51;9.52;;;4.13;;
48925;SDS011;39838;59.938;30.642;2024-03-23T09:29:17;9.48;;;4.90;;
48925;SDS011;39838;59.938;30.642;2024-03-23T09:31:47;10.02;;;5.70;;
48925;SDS011;39838;59.938;30.642;2024-03-23T09:34:13;10.48;;;5.35;;
48925;SDS011;39838;59.938;30.642;2024-03-23T09:36:41;11.18;;;5.70;;
48925;SDS011;39838;59.938;30.642;2024-03-23T09:39:07;8.90;;;5.30;;
48925;SDS011;39838;59.938;30.642;2024-03-23T09:41:36;9.20;;;5.70;;
48925;SDS011;39838;59.938;30.642;2024-03-23T09:44:03;10.23;;;5.85;;
48925;SDS011;39838;59.938;30.642;2024-03-23T09:46:31;10.82;;;6.13;;
48925;SDS011;39838;59.938;30.642;2024-03-23T09:49:01;9.63;;;5.82;;
48925;SDS011;39838;59.938;30.642;2024-03-23T09:51:29;11.00;;;5.53;;
48925;SDS011;39838;59.938;30.642;2024-03-23T09:53:56;10.38;;;6.55;;
48925;SDS011;39838;59.938;30.642;2024-03-23T09:56:24;8.38;;;5.88;;
48925;SDS011;39838;59.938;30.642;2024-03-23T09:58:50;13.18;;;6.28;;
48925;SDS011;39838;59.938;30.642;2024-03-23T10:01:17;14.25;;;6.50;;
48925;SDS011;39838;59.938;30.642;2024-03-23T10:03:44;14.15;;;7.03;;
48925;SDS011;39838;59.938;30.642;2024-03-23T10:06:13;9.82;;;5.85;;
48925;SDS011;39838;59.938;30.642;2024-03-23T10:08:40;11.40;;;6.47;;
48925;SDS011;39838;59.938;30.642;2024-03-23T10:11:16;11.55;;;6.38;;
48925;SDS011;39838;59.938;30.642;2024-03-23T10:13:43;12.15;;;6.30;;
48925;SDS011;39838;59.938;30.642;2024-03-23T10:16:12;11.10;;;7.43;;
48925;SDS011;39838;59.938;30.642;2024-03-23T10:18:46;14.45;;;7.65;;
48925;SDS011;39838;59.938;30.642;2024-03-23T10:21:15;16.05;;;7.65;;
48925;SDS011;39838;59.938;30.642;2024-03-23T10:23:42;12.55;;;7.15;;
48925;SDS011;39838;59.938;30.642;2024-03-23T10:26:12;12.93;;;6.55;;
48925;SDS011;39838;59.938;30.642;2024-03-23T10:28:52;11.18;;;6.03;;
48925;SDS011;39838;59.938;30.642;2024-03-23T10:31:27;13.18;;;6.18;;
48925;SDS011;39838;59.938;30.642;2024-03-23T10:33:54;8.80;;;4.30;;
48925;SDS011;39838;59.938;30.642;2024-03-23T10:36:23;6.07;;;3.53;;
48925;SDS011;39838;59.938;30.642;2024-03-23T10:38:51;8.32;;;5.57;;
48925;SDS011;39838;59.938;30.642;2024-03-23T10:41:19;10.80;;;5.32;;
48925;SDS011;39838;59.938;30.642;2024-03-23T10:43:48;8.13;;;5.28;;
48925;SDS011;39838;59.938;30.642;2024-03-23T10:46:16;7.65;;;5.55;;
48925;SDS011;39838;59.938;30.642;2024-03-23T10:48:43;8.68;;;5.47;;
48925;SDS011;39838;59.938;30.642;2024-03-23T10:51:10;8.50;;;5.65;;
48925;SDS011;39838;59.938;30.642;2024-03-23T10:53:39;7.40;;;5.07;;
48925;SDS011;39838;59.938;30.642;2024-03-23T10:56:06;9.10;;;4.75;;
48925;SDS011;39838;59.938;30.642;2024-03-23T10:58:36;11.45;;;5.15;;
48925;SDS011;39838;59.938;30.642;2024-03-23T11:01:04;9.38;;;5.65;;
48925;SDS011;39838;59.938;30.642;2024-03-23T11:03:35;9.82;;;5.50;;
48925;SDS011;39838;59.938;30.642;2024-03-23T11:06:03;8.57;;;5.32;;
48925;SDS011;39838;59.938;30.642;2024-03-23T11:08:31;9.70;;;5.47;;
48925;SDS011;39838;59.938;30.642;2024-03-23T11:11:13;8.15;;;4.75;;
48925;SDS011;39838;59.938;30.642;2024-03-23T11:13:40;8.02;;;5.25;;
48925;SDS011;39838;59.938;30.642;2024-03-23T11:16:13;8.65;;;5.05;;
48925;SDS011;39838;59.938;30.642;2024-03-23T11:18:41;7.60;;;4.93;;
48925;SDS011;39838;59.938;30.642;2024-03-23T11:21:09;8.75;;;5.30;;
48925;SDS011;39838;59.938;30.642;2024-03-23T11:23:36;6.70;;;4.82;;
48925;SDS011;39838;59.938;30.642;2024-03-23T11:26:07;9.10;;;5.25;;
48925;SDS011;39838;59.938;30.642;2024-03-23T11:28:36;6.03;;;4.35;;
48925;SDS011;39838;59.938;30.642;2024-03-23T11:31:09;7.25;;;5.07;;
48925;SDS011;39838;59.938;30.642;2024-03-23T11:33:37;8.45;;;4.32;;
48925;SDS011;39838;59.938;30.642;2024-03-23T11:36:04;8.82;;;5.30;;
48925;SDS011;39838;59.938;30.642;2024-03-23T11:38:31;6.97;;;4.72;;
48925;SDS011;39838;59.938;30.642;2024-03-23T11:41:03;11.45;;;5.28;;
48925;SDS011;39838;59.938;30.642;2024-03-23T11:43:30;8.75;;;5.25;;
48925;SDS011;39838;59.938;30.642;2024-03-23T11:45:58;9.18;;;4.30;;
48925;SDS011;39838;59.938;30.642;2024-03-23T11:48:28;8.95;;;5.15;;
48925;SDS011;39838;59.938;30.642;2024-03-23T11:50:56;8.20;;;5.60;;
48925;SDS011;39838;59.938;30.642;2024-03-23T11:53:24;9.90;;;5.28;;
48925;SDS011;39838;59.938;30.642;2024-03-23T11:55:53;8.68;;;5.25;;
48925;SDS011;39838;59.938;30.642;2024-03-23T11:58:22;9.20;;;5.03;;
48925;SDS011;39838;59.938;30.642;2024-03-23T12:00:50;8.60;;;5.30;;
48925;SDS011;39838;59.938;30.642;2024-03-23T12:03:20;8.57;;;5.30;;
48925;SDS011;39838;59.938;30.642;2024-03-23T12:05:51;7.22;;;4.70;;
48925;SDS011;39838;59.938;30.642;2024-03-23T12:08:23;8.13;;;4.70;;
48925;SDS011;39838;59.938;30.642;2024-03-23T12:10:50;8.02;;;5.30;;
48925;SDS011;39838;59.938;30.642;2024-03-23T12:13:19;8.20;;;5.18;;
48925;SDS011;39838;59.938;30.642;2024-03-23T12:15:46;8.23;;;5.38;;
48925;SDS011;39838;59.938;30.642;2024-03-23T12:18:14;9.77;;;5.60;;
48925;SDS011;39838;59.938;30.642;2024-03-23T12:20:42;8.85;;;5.75;;
48925;SDS011;39838;59.938;30.642;2024-03-23T12:23:10;8.80;;;5.40;;
48925;SDS011;39838;59.938;30.642;2024-03-23T12:25:37;8.05;;;4.90;;
48925;SDS011;39838;59.938;30.642;2024-03-23T12:28:05;8.77;;;5.15;;
48925;SDS011;39838;59.938;30.642;2024-03-23T12:30:33;8.27;;;5.63;;
48925;SDS011;39838;59.938;30.642;2024-03-23T12:33:02;8.20;;;4.82;;
48925;SDS011;39838;59.938;30.642;2024-03-23T12:35:30;6.43;;;4.30;;
48925;SDS011;39838;59.938;30.642;2024-03-23T12:37:58;11.65;;;4.75;;
48925;SDS011;39838;59.938;30.642;2024-03-23T12:40:25;10.02;;;4.80;;
48925;SDS011;39838;59.938;30.642;2024-03-23T12:42:53;6.65;;;4.28;;
48925;SDS011;39838;59.938;30.642;2024-03-23T12:45:19;8.00;;;4.40;;
48925;SDS011;39838;59.938;30.642;2024-03-23T12:47:46;7.20;;;4.90;;
48925;SDS011;39838;59.938;30.642;2024-03-23T12:50:12;6.95;;;4.22;;
48925;SDS011;39838;59.938;30.642;2024-03-23T12:52:40;6.75;;;4.50;;
48925;SDS011;39838;59.938;30.642;2024-03-23T12:55:08;7.78;;;4.60;;
48925;SDS011;39838;59.938;30.642;2024-03-23T12:57:36;8.18;;;4.35;;
48925;SDS011;39838;59.938;30.642;2024-03-23T13:00:03;5.13;;;3.40;;
48925;SDS011;39838;59.938;30.642;2024-03-23T13:02:31;5.05;;;3.47;;
48925;SDS011;39838;59.938;30.642;2024-03-23T13:05:00;7.72;;;4.00;;
48925;SDS011;39838;59.938;30.642;2024-03-23T13:07:29;7.03;;;4.20;;
48925;SDS011;39838;59.938;30.642;2024-03-23T13:09:56;5.78;;;3.80;;
48925;SDS011;39838;59.938;30.642;2024-03-23T13:12:24;4.63;;;3.35;;
48925;SDS011;39838;59.938;30.642;2024-03-23T13:14:51;4.60;;;3.28;;
48925;SDS011;39838;59.938;30.642;2024-03-23T13:17:18;4.90;;;3.13;;
48925;SDS011;39838;59.938;30.642;2024-03-23T13:19:44;5.90;;;3.20;;
48925;SDS011;39838;59.938;30.642;2024-03-23T13:22:11;4.63;;;3.13;;
48925;SDS011;39838;59.938;30.642;2024-03-23T13:24:38;4.03;;;2.33;;
48925;SDS011;39838;59.938;30.642;2024-03-23T13:27:05;4.82;;;3.05;;
48925;SDS011;39838;59.938;30.642;2024-03-23T13:29:34;5.03;;;3.50;;
48925;SDS011;39838;59.938;30.642;2024-03-23T13:32:03;5.22;;;2.90;;
48925;SDS011;39838;59.938;30.642;2024-03-23T13:34:30;6.47;;;3.35;;
48925;SDS011;39838;59.938;30.642;2024-03-23T13:36:58;5.72;;;3.58;;
48925;SDS011;39838;59.938;30.642;2024-03-23T13:39:26;6.47;;;4.10;;
48925;SDS011;39838;59.938;30.642;2024-03-23T13:41:54;7.30;;;3.90;;
48925;SDS011;39838;59.938;30.642;2024-03-23T13:44:21;5.30;;;3.65;;
48925;SDS011;39838;59.938;30.642;2024-03-23T13:46:50;8.30;;;3.70;;
48925;SDS011;39838;59.938;30.642;2024-03-23T13:49:25;6.93;;;3.70;;
48925;SDS011;39838;59.938;30.642;2024-03-23T13:51:54;7.60;;;3.60;;
48925;SDS011;39838;59.938;30.642;2024-03-23T13:54:21;6.03;;;3.78;;
48925;SDS011;39838;59.938;30.642;2024-03-23T13:56:49;7.60;;;3.60;;
48925;SDS011;39838;59.938;30.642;2024-03-23T13:59:16;7.47;;;3.78;;
48925;SDS011;39838;59.938;30.642;2024-03-23T14:01:43;6.13;;;3.78;;
48925;SDS011;39838;59.938;30.642;2024-03-23T14:04:12;6.65;;;3.53;;
48925;SDS011;39838;59.938;30.642;2024-03-23T14:06:42;5.63;;;3.53;;
48925;SDS011;39838;59.938;30.642;2024-03-23T14:09:08;6.15;;;3.30;;
48925;SDS011;39838;59.938;30.642;2024-03-23T14:11:35;5.68;;;3.60;;
48925;SDS011;39838;59.938;30.642;2024-03-23T14:14:02;6.10;;;3.40;;
48925;SDS011;39838;59.938;30.642;2024-03-23T14:16:30;7.43;;;3.88;;
48925;SDS011;39838;59.938;30.642;2024-03-23T14:18:56;5.10;;;3.15;;
48925;SDS011;39838;59.938;30.642;2024-03-23T14:21:25;4.72;;;3.42;;
48925;SDS011;39838;59.938;30.642;2024-03-23T14:23:51;5.47;;;3.10;;
48925;SDS011;39838;59.938;30.642;2024-03-23T14:26:19;5.32;;;3.33;;
48925;SDS011;39838;59.938;30.642;2024-03-23T14:28:45;4.95;;;3.08;;
48925;SDS011;39838;59.938;30.642;2024-03-23T14:31:12;5.22;;;3.55;;
48925;SDS011;39838;59.938;30.642;2024-03-23T14:33:39;5.15;;;3.10;;
48925;SDS011;39838;59.938;30.642;2024-03-23T14:36:11;4.50;;;3.10;;
48925;SDS011;39838;59.938;30.642;2024-03-23T14:38:39;3.25;;;2.30;;
48925;SDS011;39838;59.938;30.642;2024-03-23T14:41:07;4.32;;;2.65;;
48925;SDS011;39838;59.938;30.642;2024-03-23T14:43:34;3.95;;;2.78;;
48925;SDS011;39838;59.938;30.642;2024-03-23T14:46:08;6.07;;;2.90;;
48925;SDS011;39838;59.938;30.642;2024-03-23T14:48:38;7.03;;;2.88;;
48925;SDS011;39838;59.938;30.642;2024-03-23T14:51:06;5.57;;;2.85;;
48925;SDS011;39838;59.938;30.642;2024-03-23T14:53:34;4.82;;;2.97;;
48925;SDS011;39838;59.938;30.642;2024-03-23T14:56:05;5.97;;;3.35;;
48925;SDS011;39838;59.938;30.642;2024-03-23T14:58:32;5.20;;;3.13;;
48925;SDS011;39838;59.938;30.642;2024-03-23T15:01:01;8.10;;;3.80;;
48925;SDS011;39838;59.938;30.642;2024-03-23T15:03:27;6.90;;;3.40;;
48925;SDS011;39838;59.938;30.642;2024-03-23T15:05:55;5.32;;;3.47;;
48925;SDS011;39838;59.938;30.642;2024-03-23T15:08:22;5.47;;;3.40;;
48925;SDS011;39838;59.938;30.642;2024-03-23T15:10:49;6.57;;;3.63;;
48925;SDS011;39838;59.938;30.642;2024-03-23T15:13:17;6.05;;;3.90;;
48925;SDS011;39838;59.938;30.642;2024-03-23T15:15:46;6.32;;;3.83;;
48925;SDS011;39838;59.938;30.642;2024-03-23T15:18:14;8.35;;;3.38;;
48925;SDS011;39838;59.938;30.642;2024-03-23T15:20:51;5.72;;;3.42;;
48925;SDS011;39838;59.938;30.642;2024-03-23T15:25:44;5.65;;;3.50;;
48925;SDS011;39838;59.938;30.642;2024-03-23T15:28:11;4.53;;;3.28;;
48925;SDS011;39838;59.938;30.642;2024-03-23T15:30:40;5.80;;;3.15;;